createdAt,value
2022-12-28T00:01:33.055Z,98509.77
2022-12-28T00:04:05.161Z,98512.81
2022-12-28T00:06:34.342Z,98525.94
2022-12-28T00:09:02.612Z,98530.58
2022-12-28T00:11:31.459Z,98532.19
2022-12-28T00:14:02.016Z,98534.55
2022-12-28T00:16:37.699Z,98532.34
2022-12-28T00:19:15.173Z,98542.59
2022-12-28T00:21:45.016Z,98551.79
2022-12-28T00:24:20.924Z,98546.06
2022-12-28T00:26:50.382Z,98552.38
2022-12-28T00:29:18.841Z,98557.81
2022-12-28T00:31:47.043Z,98557.73
2022-12-28T00:34:15.291Z,98561.90
2022-12-28T00:37:09.756Z,98568.13
2022-12-28T00:39:12.767Z,98563.00
2022-12-28T00:41:40.409Z,98565.36
2022-12-28T00:44:09.510Z,98563.67
2022-12-28T00:46:37.481Z,98567.47
2022-12-28T00:49:06.655Z,98570.86
2022-12-28T00:51:34.443Z,98575.53
2022-12-28T00:54:02.369Z,98570.56
2022-12-28T00:56:30.279Z,98577.17
2022-12-28T00:58:59.764Z,98576.05
2022-12-28T01:01:28.971Z,98577.52
2022-12-28T01:04:01.757Z,98581.91
2022-12-28T01:06:29.910Z,98575.54
2022-12-28T01:08:58.356Z,98548.73
2022-12-28T01:11:30.206Z,98578.52
2022-12-28T01:14:01.016Z,98577.44
2022-12-28T01:16:32.793Z,98574.48
2022-12-28T01:19:04.900Z,98578.67
2022-12-28T01:21:34.239Z,98576.23
2022-12-28T01:24:04.334Z,98581.66
2022-12-28T01:26:34.548Z,98577.32
2022-12-28T01:29:03.545Z,98578.78
2022-12-28T01:31:33.568Z,98584.72
2022-12-28T01:34:02.645Z,98587.55
2022-12-28T01:36:34.325Z,98585.72
2022-12-28T01:39:05.882Z,98586.23
2022-12-28T01:41:40.163Z,98585.43
2022-12-28T01:44:13.345Z,98592.83
2022-12-28T01:46:50.401Z,98603.80
2022-12-28T01:49:26.681Z,98599.79
2022-12-28T01:52:24.160Z,98602.62
2022-12-28T01:55:00.107Z,98607.33
2022-12-28T01:57:33.439Z,98605.63
2022-12-28T02:00:06.155Z,98601.35
2022-12-28T02:02:36.414Z,98601.87
2022-12-28T02:05:05.763Z,98607.46
2022-12-28T02:07:53.144Z,98608.55
2022-12-28T02:10:43.733Z,98601.16
2022-12-28T02:12:53.828Z,98606.72
2022-12-28T02:15:23.409Z,98604.37
2022-12-28T02:17:51.489Z,98604.37
2022-12-28T02:20:19.648Z,98594.77
2022-12-28T02:23:07.827Z,98592.95
2022-12-28T02:26:02.428Z,98591.84
2022-12-28T02:29:15.127Z,98595.32
2022-12-28T02:31:51.153Z,98595.37
2022-12-28T02:34:26.780Z,98608.91
2022-12-28T02:37:01.508Z,98600.23
2022-12-28T02:39:37.734Z,98605.70
2022-12-28T02:42:09.242Z,98602.20
2022-12-28T02:44:57.220Z,98612.95
2022-12-28T02:47:43.347Z,98609.13
2022-12-28T02:50:15.337Z,98618.86
2022-12-28T02:52:54.385Z,98620.69
2022-12-28T02:56:02.787Z,98621.50
2022-12-28T02:58:52.169Z,98625.13
2022-12-28T03:01:45.050Z,98625.06
2022-12-28T03:04:53.435Z,98632.36
2022-12-28T03:07:47.974Z,98633.30
2022-12-28T03:10:32.917Z,98629.08
2022-12-28T03:13:10.967Z,98629.63
2022-12-28T03:15:38.967Z,98637.84
2022-12-28T03:18:34.690Z,98640.31
2022-12-28T03:21:25.094Z,98633.34
2022-12-28T03:24:13.429Z,98637.70
2022-12-28T03:27:05.297Z,98638.73
2022-12-28T03:29:58.445Z,98640.23
2022-12-28T03:32:26.358Z,98639.66
2022-12-28T03:34:55.697Z,98640.45
2022-12-28T03:37:38.046Z,98637.72
2022-12-28T03:40:34.769Z,98633.26
2022-12-28T03:43:32.598Z,98633.48
2022-12-28T03:46:04.877Z,98640.65
2022-12-28T03:48:36.868Z,98647.23
2022-12-28T03:51:05.539Z,98644.82
2022-12-28T03:53:43.283Z,98641.16
2022-12-28T03:56:17.939Z,98645.73
2022-12-28T03:58:48.635Z,98642.58
2022-12-28T04:01:17.444Z,98653.34
2022-12-28T04:03:45.912Z,98650.19
2022-12-28T04:06:17.262Z,98648.36
2022-12-28T04:08:46.077Z,98652.60
2022-12-28T04:11:14.431Z,98653.11
2022-12-28T04:13:43.914Z,98656.55
2022-12-28T04:16:14.466Z,98650.80
2022-12-28T04:18:43.441Z,98660.91
2022-12-28T04:21:16.067Z,98663.55
2022-12-28T04:23:44.993Z,98658.50
2022-12-28T04:26:20.889Z,98662.74
2022-12-28T04:28:50.573Z,98670.06
2022-12-28T04:31:21.331Z,98667.20
2022-12-28T04:33:51.168Z,98665.59
2022-12-28T04:36:19.292Z,98660.84
2022-12-28T04:38:47.085Z,98662.55
2022-12-28T04:41:14.584Z,98669.14
2022-12-28T04:43:42.379Z,98667.09
2022-12-28T04:46:17.503Z,98668.22
2022-12-28T04:48:45.032Z,98664.05
2022-12-28T04:51:25.937Z,98667.29
2022-12-28T04:53:56.124Z,98660.48
2022-12-28T04:56:25.958Z,98666.66
2022-12-28T04:59:00.121Z,98672.31
2022-12-28T05:01:28.289Z,98665.51
2022-12-28T05:03:59.276Z,98671.68
2022-12-28T05:06:27.223Z,98673.71
2022-12-28T05:08:56.824Z,98674.30
2022-12-28T05:11:28.412Z,98671.53
2022-12-28T05:13:57.283Z,98674.27
2022-12-28T05:16:28.021Z,98677.00
2022-12-28T05:18:57.476Z,98675.36
2022-12-28T05:21:27.846Z,98666.98
2022-12-28T05:23:56.861Z,98681.25
2022-12-28T05:26:28.374Z,98681.41
2022-12-28T05:28:58.116Z,98674.41
2022-12-28T05:31:26.896Z,98674.21
2022-12-28T05:33:55.108Z,98677.75
2022-12-28T05:36:26.238Z,98677.53
2022-12-28T05:38:55.612Z,98682.61
2022-12-28T05:41:27.452Z,98677.33
2022-12-28T05:43:58.099Z,98682.16
2022-12-28T05:46:30.268Z,98684.09
2022-12-28T05:49:01.400Z,98682.99
2022-12-28T05:51:31.753Z,98674.19
2022-12-28T05:54:03.195Z,98684.60
2022-12-28T05:56:32.329Z,98692.22
2022-12-28T05:59:03.481Z,98691.48
2022-12-28T06:01:35.594Z,98691.19
2022-12-28T06:04:08.121Z,98699.00
2022-12-28T06:06:36.075Z,98699.81
2022-12-28T06:09:04.061Z,98702.67
2022-12-28T06:11:32.441Z,98703.98
2022-12-28T06:14:02.870Z,98704.08
2022-12-28T06:16:33.998Z,98701.45
2022-12-28T06:19:16.271Z,98699.73
2022-12-28T06:21:44.158Z,98703.05
2022-12-28T06:24:13.509Z,98700.27
2022-12-28T06:26:41.749Z,98704.15
2022-12-28T06:29:10.078Z,98699.39
2022-12-28T06:31:42.801Z,98699.20
2022-12-28T06:34:10.403Z,98698.60
2022-12-28T06:36:42.231Z,98697.00
2022-12-28T06:39:13.630Z,98700.20
2022-12-28T06:41:42.432Z,98698.22
2022-12-28T06:44:13.167Z,98703.88
2022-12-28T06:46:41.640Z,98707.89
2022-12-28T06:49:11.304Z,98709.18
2022-12-28T06:51:41.382Z,98714.58
2022-12-28T06:54:10.251Z,98708.45
2022-12-28T06:56:39.058Z,98702.12
2022-12-28T06:59:07.115Z,98708.63
2022-12-28T07:01:39.733Z,98702.59
2022-12-28T07:04:09.627Z,98703.70
2022-12-28T07:06:43.573Z,98705.64
2022-12-28T07:09:14.806Z,98698.02
2022-12-28T07:11:44.242Z,98696.78
2022-12-28T07:14:15.473Z,98691.01
2022-12-28T07:16:43.385Z,98695.13
2022-12-28T07:19:11.459Z,98702.68
2022-12-28T07:21:40.313Z,98703.92
2022-12-28T07:24:11.097Z,98695.77
2022-12-28T07:26:38.926Z,98692.67
2022-12-28T07:29:08.444Z,98687.72
2022-12-28T07:31:45.430Z,98682.73
2022-12-28T07:34:10.453Z,98685.41
2022-12-28T07:36:38.133Z,98674.58
2022-12-28T07:39:06.118Z,98676.84
2022-12-28T07:41:35.673Z,98686.56
2022-12-28T07:44:05.343Z,98698.75
2022-12-28T07:46:35.791Z,98682.05
2022-12-28T07:49:04.271Z,98673.02
2022-12-28T07:51:35.529Z,98674.05
2022-12-28T07:54:05.238Z,98677.28
2022-12-28T07:59:05.178Z,98673.64
2022-12-28T08:01:35.725Z,98681.61
2022-12-28T08:04:11.191Z,98679.91
2022-12-28T08:06:41.794Z,98678.71
2022-12-28T08:09:12.965Z,98674.74
2022-12-28T08:11:44.269Z,98675.77
2022-12-28T08:14:13.541Z,98680.70
2022-12-28T08:16:44.060Z,98680.81
2022-12-28T08:19:13.760Z,98689.12
2022-12-28T08:21:44.916Z,98688.68
2022-12-28T08:24:17.409Z,98692.51
2022-12-28T08:26:47.788Z,98693.41
2022-12-28T08:29:20.214Z,98703.92
2022-12-28T08:31:49.980Z,98695.30
2022-12-28T08:34:28.826Z,98698.45
2022-12-28T08:36:58.276Z,98687.05
2022-12-28T08:39:28.894Z,98691.63
2022-12-28T08:41:58.080Z,98696.72
2022-12-28T08:44:26.904Z,98684.28
2022-12-28T08:46:58.224Z,98675.81
2022-12-28T08:49:30.559Z,98688.13
2022-12-28T08:52:00.776Z,98695.89
2022-12-28T08:54:29.245Z,98691.67
2022-12-28T08:56:57.464Z,98686.36
2022-12-28T08:59:26.383Z,98683.25
2022-12-28T09:01:54.321Z,98687.64
2022-12-28T09:04:22.735Z,98682.70
2022-12-28T09:06:50.988Z,98678.30
2022-12-28T09:09:22.637Z,98685.59
2022-12-28T09:11:50.635Z,98677.38
2022-12-28T09:14:23.817Z,98663.40
2022-12-28T09:16:48.420Z,98665.89
2022-12-28T09:19:16.315Z,98660.13
2022-12-28T09:21:47.940Z,98660.72
2022-12-28T09:24:16.414Z,98667.73
2022-12-28T09:26:44.494Z,98673.17
2022-12-28T09:29:14.002Z,98663.95
2022-12-28T09:31:44.025Z,98658.93
2022-12-28T09:36:44.795Z,98664.62
2022-12-28T09:39:20.191Z,98661.45
2022-12-28T09:42:10.100Z,98662.81
2022-12-28T09:45:00.056Z,98659.59
2022-12-28T09:47:38.153Z,98655.03
2022-12-28T09:50:22.336Z,98649.69
2022-12-28T09:53:07.492Z,98644.10
2022-12-28T09:55:38.118Z,98641.50
2022-12-28T09:58:14.248Z,98644.48
2022-12-28T10:00:49.302Z,98642.94
2022-12-28T10:03:27.936Z,98639.52
2022-12-28T10:05:57.599Z,98633.05
2022-12-28T10:08:27.986Z,98625.21
2022-12-28T10:11:00.126Z,98631.30
2022-12-28T10:13:54.158Z,98634.44
2022-12-28T10:16:13.935Z,98631.79
2022-12-28T10:18:41.364Z,98634.02
2022-12-28T10:21:09.798Z,98623.67
2022-12-28T10:24:04.777Z,98626.40
2022-12-28T10:26:16.312Z,98626.43
2022-12-28T10:28:58.461Z,98628.35
2022-12-28T10:31:38.719Z,98625.15
2022-12-28T10:34:22.201Z,98621.46
2022-12-28T10:36:52.530Z,98621.73
2022-12-28T10:39:29.810Z,98614.27
2022-12-28T10:42:03.010Z,98613.47
2022-12-28T10:44:41.579Z,98612.95
2022-12-28T10:47:18.329Z,98612.14
2022-12-28T10:50:10.539Z,98611.91
2022-12-28T10:52:22.577Z,98606.31
2022-12-28T10:55:07.441Z,98602.31
2022-12-28T10:57:29.771Z,98602.02
2022-12-28T11:00:22.388Z,98591.62
2022-12-28T11:02:50.306Z,98591.09
2022-12-28T11:05:23.019Z,98589.99
2022-12-28T11:08:04.185Z,98590.81
2022-12-28T11:10:32.397Z,98589.99
2022-12-28T11:13:01.493Z,98588.41
2022-12-28T11:15:33.707Z,98587.59
2022-12-28T11:18:16.872Z,98582.25
2022-12-28T11:20:51.237Z,98581.72
2022-12-28T11:23:25.681Z,98578.78
2022-12-28T11:25:53.616Z,98576.92
2022-12-28T11:28:22.905Z,98575.53
2022-12-28T11:30:52.235Z,98579.27
2022-12-28T11:33:42.859Z,98579.81
2022-12-28T11:36:23.865Z,98583.28
2022-12-28T11:38:54.622Z,98588.64
2022-12-28T11:41:34.019Z,98579.81
2022-12-28T11:44:05.560Z,98579.80
2022-12-28T11:46:37.831Z,98579.02
2022-12-28T11:49:27.598Z,98573.92
2022-12-28T11:52:22.602Z,98572.86
2022-12-28T11:54:55.069Z,98564.86
2022-12-28T11:57:40.446Z,98577.16
2022-12-28T12:00:23.817Z,98574.50
2022-12-28T12:03:00.013Z,98564.58
2022-12-28T12:05:43.187Z,98559.80
2022-12-28T12:08:20.630Z,98562.22
2022-12-28T12:10:51.881Z,98549.41
2022-12-28T12:13:31.061Z,98556.30
2022-12-28T12:16:07.211Z,98552.84
2022-12-28T12:18:50.862Z,98550.67
2022-12-28T12:21:33.563Z,98553.61
2022-12-28T12:24:29.463Z,98542.38
2022-12-28T12:27:17.286Z,98539.95
2022-12-28T12:30:05.311Z,98538.86
2022-12-28T12:32:44.635Z,98535.62
2022-12-28T12:35:23.974Z,98526.54
2022-12-28T12:38:05.352Z,98523.34
2022-12-28T12:41:14.967Z,98520.67
2022-12-28T12:43:50.092Z,98511.34
2022-12-28T12:46:41.249Z,98517.72
2022-12-28T12:49:39.679Z,98511.33
2022-12-28T12:52:46.731Z,98523.89
2022-12-28T12:55:30.175Z,98519.61
2022-12-28T12:58:28.099Z,98516.41
2022-12-28T13:01:27.562Z,98514.52
2022-12-28T13:04:02.064Z,98518.27
2022-12-28T13:06:37.352Z,98507.08
2022-12-28T13:09:06.949Z,98510.83
2022-12-28T13:11:39.316Z,98494.51
2022-12-28T13:14:19.292Z,98512.41
2022-12-28T13:16:51.109Z,98516.13
2022-12-28T13:19:23.405Z,98515.58
2022-12-28T13:21:52.396Z,98516.88
2022-12-28T13:24:31.022Z,98514.72
2022-12-28T13:27:00.366Z,98512.33
2022-12-28T13:29:37.090Z,98512.31
2022-12-28T13:32:05.478Z,98517.13
2022-12-28T13:34:34.758Z,98511.47
2022-12-28T13:37:15.738Z,98514.11
2022-12-28T13:39:44.012Z,98508.48
2022-12-28T13:42:18.818Z,98503.67
2022-12-28T13:44:59.479Z,98507.36
2022-12-28T13:47:49.516Z,98507.33
2022-12-28T13:50:29.475Z,98511.02
2022-12-28T13:53:08.365Z,98515.48
2022-12-28T13:55:44.276Z,98515.66
2022-12-28T13:58:19.853Z,98506.53
2022-12-28T14:00:49.922Z,98511.27
2022-12-28T14:03:19.099Z,98509.36
2022-12-28T14:05:53.509Z,98510.39
2022-12-28T14:08:22.537Z,98509.84
2022-12-28T14:10:51.860Z,98518.33
2022-12-28T14:13:20.452Z,98513.24
2022-12-28T14:15:49.365Z,98511.32
2022-12-28T14:18:18.417Z,98513.42
2022-12-28T14:20:54.364Z,98508.83
2022-12-28T14:23:30.878Z,98506.41
2022-12-28T14:26:07.260Z,98502.88
2022-12-28T14:28:43.522Z,98505.98
2022-12-28T14:31:14.343Z,98502.98
2022-12-28T14:33:50.356Z,98496.53
2022-12-28T14:36:22.018Z,98493.23
2022-12-28T14:39:01.149Z,98494.22
2022-12-28T14:41:36.852Z,98498.66
2022-12-28T14:44:09.456Z,98497.75
2022-12-28T14:46:39.831Z,98498.13
2022-12-28T14:49:31.917Z,98492.90
2022-12-28T14:52:17.773Z,98487.98
2022-12-28T14:54:50.739Z,98492.89
2022-12-28T14:57:36.398Z,98500.46
2022-12-28T15:00:09.186Z,98502.74
2022-12-28T15:02:41.038Z,98499.14
2022-12-28T15:05:40.108Z,98499.79
2022-12-28T15:08:09.678Z,98496.45
2022-12-28T15:10:58.058Z,98497.34
2022-12-28T15:13:27.018Z,98496.70
2022-12-28T15:16:00.851Z,98498.91
2022-12-28T15:18:30.095Z,98500.14
2022-12-28T15:20:57.871Z,98496.89
2022-12-28T15:23:25.399Z,98503.40
2022-12-28T15:25:53.455Z,98503.27
2022-12-28T15:28:25.851Z,98498.33
2022-12-28T15:30:53.805Z,98504.28
2022-12-28T15:33:21.520Z,98502.77
2022-12-28T15:35:49.311Z,98502.11
2022-12-28T15:38:17.165Z,98497.47
2022-12-28T15:40:46.742Z,98492.58
2022-12-28T15:43:14.536Z,98485.56
2022-12-28T15:45:42.117Z,98482.83
2022-12-28T15:48:09.543Z,98482.50
2022-12-28T15:50:37.047Z,98482.38
2022-12-28T15:53:05.110Z,98487.84
2022-12-28T15:55:33.391Z,98488.80
2022-12-28T15:58:01.290Z,98490.49
2022-12-28T16:00:29.123Z,98486.64
2022-12-28T16:02:57.302Z,98485.45
2022-12-28T16:05:25.392Z,98479.44
2022-12-28T16:07:53.052Z,98474.78
2022-12-28T16:10:21.722Z,98471.73
2022-12-28T16:12:49.367Z,98475.09
2022-12-28T16:15:19.414Z,98482.38
2022-12-28T16:17:56.867Z,98476.67
2022-12-28T16:20:17.333Z,98485.59
2022-12-28T16:22:47.461Z,98477.61
2022-12-28T16:25:18.092Z,98482.84
2022-12-28T16:27:45.904Z,98485.94
2022-12-28T16:30:14.214Z,98489.28
2022-12-28T16:32:43.328Z,98500.08
2022-12-28T16:35:11.324Z,98493.70
2022-12-28T16:37:39.596Z,98495.23
2022-12-28T16:40:09.271Z,98494.68
2022-12-28T16:42:36.942Z,98495.48
2022-12-28T16:45:05.406Z,98498.38
2022-12-28T16:47:33.289Z,98492.25
2022-12-28T16:50:01.045Z,98493.74
2022-12-28T16:52:29.236Z,98492.08
2022-12-28T16:54:57.527Z,98492.84
2022-12-28T16:57:26.034Z,98490.64
2022-12-28T16:59:53.657Z,98488.45
2022-12-28T17:02:23.772Z,98491.27
2022-12-28T17:04:51.563Z,98486.70
2022-12-28T17:07:18.924Z,98488.48
2022-12-28T17:09:50.301Z,98484.69
2022-12-28T17:12:19.635Z,98478.23
2022-12-28T17:14:49.638Z,98479.94
2022-12-28T17:17:17.763Z,98484.83
2022-12-28T17:19:45.937Z,98487.92
2022-12-28T17:22:13.942Z,98489.97
2022-12-28T17:24:42.271Z,98484.13
2022-12-28T17:27:17.204Z,98477.97
2022-12-28T17:29:40.248Z,98480.53
2022-12-28T17:32:08.565Z,98478.93
2022-12-28T17:34:38.223Z,98483.10
2022-12-28T17:37:06.141Z,98489.19
2022-12-28T17:39:40.021Z,98487.59
2022-12-28T17:42:06.187Z,98490.23
2022-12-28T17:44:34.982Z,98485.47
2022-12-28T17:47:02.629Z,98488.03
2022-12-28T17:49:30.591Z,98480.34
2022-12-28T17:51:58.523Z,98484.02
2022-12-28T17:54:26.291Z,98477.11
2022-12-28T17:56:53.898Z,98477.63
2022-12-28T17:59:22.896Z,98477.27
2022-12-28T18:01:51.526Z,98478.75
2022-12-28T18:04:19.394Z,98482.64
2022-12-28T18:06:47.400Z,98478.32
2022-12-28T18:09:15.241Z,98473.55
2022-12-28T18:11:44.017Z,98472.75
2022-12-28T18:14:12.581Z,98477.96
2022-12-28T18:16:40.145Z,98472.61
2022-12-28T18:19:07.884Z,98474.68
2022-12-28T18:21:35.735Z,98470.64
2022-12-28T18:24:03.896Z,98469.55
2022-12-28T18:26:50.592Z,98471.08
2022-12-28T18:29:22.073Z,98471.08
2022-12-28T18:31:54.211Z,98474.48
2022-12-28T18:34:21.824Z,98475.00
2022-12-28T18:36:49.892Z,98474.48
2022-12-28T18:39:17.768Z,98473.16
2022-12-28T18:41:45.718Z,98479.77
2022-12-28T18:44:13.362Z,98474.92
2022-12-28T18:46:41.025Z,98471.92
2022-12-28T18:49:09.030Z,98478.52
2022-12-28T18:51:36.892Z,98481.68
2022-12-28T18:54:05.043Z,98483.95
2022-12-28T18:56:32.991Z,98484.16
2022-12-28T18:59:00.786Z,98490.20
2022-12-28T19:04:00.118Z,98501.12
2022-12-28T19:06:28.943Z,98493.87
2022-12-28T19:09:00.477Z,98486.10
2022-12-28T19:11:28.913Z,98490.50
2022-12-28T19:13:57.267Z,98489.61
2022-12-28T19:16:32.026Z,98481.61
2022-12-28T19:19:05.200Z,98482.13
2022-12-28T19:21:40.075Z,98482.13
2022-12-28T19:24:15.310Z,98479.93
2022-12-28T19:26:45.469Z,98475.09
2022-12-28T19:29:18.330Z,98472.89
2022-12-28T19:31:45.841Z,98476.28
2022-12-28T19:34:16.050Z,98477.23
2022-12-28T19:36:43.931Z,98478.55
2022-12-28T19:39:12.054Z,98475.59
2022-12-28T19:41:40.451Z,98471.35
2022-12-28T19:44:08.316Z,98470.78
2022-12-28T19:46:42.659Z,98471.73
2022-12-28T19:49:10.527Z,98474.80
2022-12-28T19:51:38.704Z,98477.36
2022-12-28T19:54:07.391Z,98475.23
2022-12-28T19:56:35.355Z,98484.47
2022-12-28T19:59:06.900Z,98472.80
2022-12-28T20:01:35.824Z,98471.71
2022-12-28T20:04:11.982Z,98472.23
2022-12-28T20:06:34.967Z,98474.88
2022-12-28T20:09:02.902Z,98476.91
2022-12-28T20:11:30.796Z,98482.70
2022-12-28T20:14:02.551Z,98489.29
2022-12-28T20:16:32.969Z,98490.33
2022-12-28T20:19:01.268Z,98487.31
2022-12-28T20:21:29.067Z,98496.46
2022-12-28T20:23:56.852Z,98492.22
2022-12-28T20:26:26.537Z,98495.05
2022-12-28T20:28:56.381Z,98494.77
2022-12-28T20:31:25.514Z,98498.44
2022-12-28T20:33:53.705Z,98492.85
2022-12-28T20:36:27.945Z,98497.32
2022-12-28T20:38:56.587Z,98490.96
2022-12-28T20:41:48.929Z,98490.67
2022-12-28T20:44:25.080Z,98488.47
2022-12-28T20:46:54.788Z,98503.59
2022-12-28T20:49:29.120Z,98499.69
2022-12-28T20:51:57.694Z,98502.98
2022-12-28T20:54:26.156Z,98502.98
2022-12-28T20:56:55.910Z,98500.87
2022-12-28T20:59:25.344Z,98499.78
2022-12-28T21:01:53.763Z,98496.02
2022-12-28T21:04:25.348Z,98495.73
2022-12-28T21:06:54.422Z,98495.22
2022-12-28T21:09:22.642Z,98492.30
2022-12-28T21:11:50.543Z,98490.98
2022-12-28T21:14:18.213Z,98490.75
2022-12-28T21:16:46.453Z,98487.59
2022-12-28T21:19:14.456Z,98480.20
2022-12-28T21:21:42.137Z,98477.56
2022-12-28T21:24:10.064Z,98472.81
2022-12-28T21:26:38.702Z,98472.01
2022-12-28T21:29:06.530Z,98466.22
2022-12-28T21:31:36.178Z,98458.03
2022-12-28T21:34:03.870Z,98452.44
2022-12-28T21:36:31.648Z,98437.66
2022-12-28T21:39:00.788Z,98439.77
2022-12-28T21:41:46.706Z,98447.68
2022-12-28T21:44:22.084Z,98443.36
2022-12-28T21:46:53.509Z,98439.31
2022-12-28T21:49:21.376Z,98432.16
2022-12-28T21:51:49.872Z,98431.55
2022-12-28T21:54:21.083Z,98444.44
2022-12-28T21:56:53.548Z,98454.60
2022-12-28T21:59:25.020Z,98450.88
2022-12-28T22:02:13.647Z,98445.80
2022-12-28T22:05:03.687Z,98437.91
2022-12-28T22:07:34.344Z,98426.05
2022-12-28T22:10:20.482Z,98434.75
2022-12-28T22:12:48.327Z,98430.59
2022-12-28T22:15:38.371Z,98426.33
2022-12-28T22:18:24.694Z,98427.88
2022-12-28T22:20:41.114Z,98422.52
2022-12-28T22:23:09.619Z,98420.31
2022-12-28T22:25:37.421Z,98417.76
2022-12-28T22:28:06.524Z,98411.51
2022-12-28T22:30:38.879Z,98404.69
2022-12-28T22:33:06.778Z,98405.63
2022-12-28T22:35:35.034Z,98398.15
2022-12-28T22:38:02.844Z,98397.77
2022-12-28T22:40:31.073Z,98397.16
2022-12-28T22:42:59.159Z,98405.58
2022-12-28T22:45:27.714Z,98394.47
2022-12-28T22:47:58.206Z,98403.37
2022-12-28T22:50:28.447Z,98396.88
2022-12-28T22:52:57.846Z,98392.41
2022-12-28T22:55:25.822Z,98392.22
2022-12-28T22:57:53.689Z,98390.58
2022-12-28T23:00:21.687Z,98395.14
2022-12-28T23:02:49.887Z,98399.89
2022-12-28T23:05:17.741Z,98404.64
2022-12-28T23:07:45.486Z,98412.54
2022-12-28T23:10:13.269Z,98406.76
2022-12-28T23:12:41.127Z,98409.91
2022-12-28T23:15:19.122Z,98406.47
2022-12-28T23:17:48.571Z,98398.57
2022-12-28T23:20:35.862Z,98399.28
2022-12-28T23:23:22.445Z,98405.06
2022-12-28T23:26:08.669Z,98394.95
2022-12-28T23:28:37.071Z,98392.84
2022-12-28T23:31:06.226Z,98394.38
2022-12-28T23:33:36.032Z,98403.08
2022-12-28T23:36:05.263Z,98397.44
2022-12-28T23:38:33.731Z,98391.66
2022-12-28T23:41:25.394Z,98394.28
2022-12-28T23:43:53.112Z,98386.39
2022-12-28T23:46:21.015Z,98389.25
2022-12-28T23:48:48.871Z,98378.63
2022-12-28T23:51:17.483Z,98384.41
2022-12-28T23:53:45.471Z,98379.94
2022-12-28T23:56:13.398Z,98372.09
2022-12-28T23:58:40.868Z,98381.25
